createdAt,value
2018-01-06T00:00:36.087Z,11.65
2018-01-06T00:01:39.317Z,11.90
2018-01-06T00:02:41.790Z,10.52
2018-01-06T00:03:44.313Z,11.38
2018-01-06T00:04:46.801Z,11.98
2018-01-06T00:05:49.628Z,12.70
2018-01-06T00:06:52.140Z,11.93
2018-01-06T00:07:54.585Z,10.82
2018-01-06T00:08:57.822Z,11.93
2018-01-06T00:10:01.104Z,11.48
2018-01-06T00:11:03.569Z,11.75
2018-01-06T00:12:06.066Z,11.68
2018-01-06T00:13:08.575Z,12.00
2018-01-06T00:14:11.052Z,10.73
2018-01-06T00:15:13.606Z,11.27
2018-01-06T00:16:16.853Z,12.23
2018-01-06T00:17:20.100Z,11.70
2018-01-06T00:18:22.601Z,11.40
2018-01-06T00:19:25.818Z,11.02
2018-01-06T00:20:28.257Z,10.82
2018-01-06T00:21:30.710Z,11.65
2018-01-06T00:22:33.971Z,10.82
2018-01-06T00:23:37.330Z,11.75
2018-01-06T00:24:39.840Z,10.25
2018-01-06T00:25:42.294Z,11.48
2018-01-06T00:26:44.883Z,10.95
2018-01-06T00:27:47.391Z,11.50
2018-01-06T00:28:50.653Z,11.90
2018-01-06T00:29:53.109Z,11.20
2018-01-06T00:30:55.555Z,11.27
2018-01-06T00:31:58.135Z,11.07
2018-01-06T00:33:00.595Z,11.38
2018-01-06T00:34:03.263Z,11.52
2018-01-06T00:35:05.717Z,10.75
2018-01-06T00:36:08.183Z,10.52
2018-01-06T00:37:10.727Z,11.70
2018-01-06T00:38:13.190Z,9.40
2018-01-06T00:39:15.755Z,9.63
2018-01-06T00:40:18.243Z,10.45
2018-01-06T00:41:20.751Z,10.63
2018-01-06T00:42:24.054Z,10.52
2018-01-06T00:43:26.534Z,10.32
2018-01-06T00:44:29.004Z,8.93
2018-01-06T00:45:31.461Z,10.48
2018-01-06T00:46:34.716Z,8.63
2018-01-06T00:47:37.961Z,10.48
2018-01-06T00:48:40.497Z,7.53
2018-01-06T00:49:43.031Z,8.10
2018-01-06T00:50:45.493Z,8.05
2018-01-06T00:51:47.961Z,7.00
2018-01-06T00:52:50.421Z,7.32
2018-01-06T00:53:52.897Z,6.28
2018-01-06T00:54:56.283Z,6.93
2018-01-06T00:55:58.737Z,6.55
2018-01-06T00:57:01.203Z,6.15
2018-01-06T00:58:03.690Z,6.35
2018-01-06T00:59:06.235Z,5.47
2018-01-06T01:00:08.698Z,5.40
2018-01-06T01:01:11.202Z,5.00
2018-01-06T01:02:14.459Z,5.37
2018-01-06T01:03:16.945Z,5.30
2018-01-06T01:04:19.407Z,4.75
2018-01-06T01:05:21.882Z,4.78
2018-01-06T01:06:24.324Z,4.03
2018-01-06T01:07:27.576Z,4.95
2018-01-06T01:08:30.824Z,5.00
2018-01-06T01:09:34.114Z,5.00
2018-01-06T01:10:36.561Z,4.32
2018-01-06T01:11:39.045Z,5.28
2018-01-06T01:12:41.491Z,4.35
2018-01-06T01:13:43.974Z,4.65
2018-01-06T01:14:47.194Z,4.50
2018-01-06T01:15:49.675Z,4.47
2018-01-06T01:16:52.258Z,4.00
2018-01-06T01:17:55.476Z,5.00
2018-01-06T01:18:57.917Z,4.28
2018-01-06T01:20:01.168Z,3.78
2018-01-06T01:21:04.384Z,4.07
2018-01-06T01:22:06.884Z,3.85
2018-01-06T01:23:09.584Z,3.95
2018-01-06T01:24:12.043Z,3.90
2018-01-06T01:25:14.504Z,3.97
2018-01-06T01:26:17.000Z,3.97
2018-01-06T01:27:19.506Z,3.92
2018-01-06T01:28:21.945Z,3.65
2018-01-06T01:29:24.390Z,4.15
2018-01-06T01:30:26.847Z,3.60
2018-01-06T01:31:29.329Z,3.40
2018-01-06T01:32:31.774Z,3.80
2018-01-06T01:33:35.048Z,3.60
2018-01-06T01:34:37.502Z,3.30
2018-01-06T01:35:39.998Z,3.83
2018-01-06T01:36:42.565Z,3.72
2018-01-06T01:37:45.016Z,3.50
2018-01-06T01:38:47.480Z,3.87
2018-01-06T01:39:49.969Z,3.50
2018-01-06T01:40:53.208Z,3.60
2018-01-06T01:41:56.450Z,4.00
2018-01-06T01:42:59.689Z,3.58
2018-01-06T01:44:03.677Z,3.58
2018-01-06T01:45:06.215Z,3.40
2018-01-06T01:46:08.719Z,3.50
2018-01-06T01:47:11.964Z,3.20
2018-01-06T01:48:15.259Z,3.85
2018-01-06T01:49:17.715Z,3.55
2018-01-06T01:50:20.945Z,3.78
2018-01-06T01:51:23.418Z,3.40
2018-01-06T01:52:25.913Z,3.72
2018-01-06T01:53:28.399Z,3.50
2018-01-06T01:54:30.874Z,3.03
2018-01-06T01:55:33.351Z,2.78
2018-01-06T01:56:35.882Z,3.37
2018-01-06T01:57:38.325Z,2.97
2018-01-06T01:58:41.546Z,3.28
2018-01-06T01:59:44.122Z,3.22
2018-01-06T02:00:46.583Z,3.03
2018-01-06T02:01:49.079Z,3.50
2018-01-06T02:02:51.493Z,2.90
2018-01-06T02:03:54.027Z,2.97
2018-01-06T02:04:56.507Z,3.22
2018-01-06T02:05:58.983Z,3.87
2018-01-06T02:07:01.507Z,3.17
2018-01-06T02:08:03.981Z,3.05
2018-01-06T02:09:06.750Z,2.92
2018-01-06T02:10:09.210Z,3.35
2018-01-06T02:11:11.674Z,3.28
2018-01-06T02:12:15.530Z,2.87
2018-01-06T02:13:18.011Z,3.28
2018-01-06T02:14:20.481Z,3.40
2018-01-06T02:15:23.708Z,3.08
2018-01-06T02:16:26.168Z,3.37
2018-01-06T02:17:29.410Z,3.00
2018-01-06T02:18:32.658Z,2.92
2018-01-06T02:19:35.158Z,3.53
2018-01-06T02:20:37.608Z,3.30
2018-01-06T02:21:40.066Z,3.55
2018-01-06T02:22:42.535Z,3.22
2018-01-06T02:23:45.034Z,3.10
2018-01-06T02:24:47.484Z,3.20
2018-01-06T02:25:50.727Z,3.00
2018-01-06T02:26:53.966Z,3.28
2018-01-06T02:27:56.702Z,3.28
2018-01-06T02:28:59.960Z,2.53
2018-01-06T02:30:03.204Z,2.62
2018-01-06T02:31:06.427Z,2.40
2018-01-06T02:32:09.737Z,3.20
2018-01-06T02:33:12.193Z,3.20
2018-01-06T02:34:15.459Z,2.55
2018-01-06T02:35:17.909Z,2.90
2018-01-06T02:36:20.383Z,3.15
2018-01-06T02:37:22.836Z,2.50
2018-01-06T02:38:25.353Z,2.85
2018-01-06T02:39:28.750Z,2.60
2018-01-06T02:40:31.244Z,3.10
2018-01-06T02:41:33.644Z,2.85
2018-01-06T02:42:36.870Z,2.95
2018-01-06T02:43:40.135Z,2.90
2018-01-06T02:44:42.627Z,2.70
2018-01-06T02:45:46.671Z,2.67
2018-01-06T02:46:49.573Z,2.92
2018-01-06T02:47:52.040Z,3.05
2018-01-06T02:48:54.505Z,2.60
2018-01-06T02:49:56.993Z,2.70
2018-01-06T02:51:00.027Z,2.60
2018-01-06T02:52:02.513Z,2.75
2018-01-06T02:53:04.983Z,2.92
2018-01-06T02:54:07.448Z,2.60
2018-01-06T02:55:09.893Z,2.78
2018-01-06T02:56:12.407Z,3.00
2018-01-06T02:57:14.867Z,2.90
2018-01-06T02:58:17.323Z,2.53
2018-01-06T02:59:20.583Z,2.55
2018-01-06T03:00:23.114Z,3.10
2018-01-06T03:01:25.615Z,2.80
2018-01-06T03:02:28.821Z,3.45
2018-01-06T03:03:31.301Z,2.60
2018-01-06T03:04:33.754Z,2.80
2018-01-06T03:05:36.292Z,2.55
2018-01-06T03:06:38.771Z,2.83
2018-01-06T03:07:41.233Z,2.92
2018-01-06T03:08:43.727Z,3.20
2018-01-06T03:09:46.201Z,3.00
2018-01-06T03:10:49.442Z,3.40
2018-01-06T03:11:51.901Z,3.00
2018-01-06T03:12:55.191Z,2.75
2018-01-06T03:13:57.719Z,2.95
2018-01-06T03:15:00.261Z,2.92
2018-01-06T03:16:02.742Z,3.30
2018-01-06T03:17:05.210Z,2.40
2018-01-06T03:18:07.692Z,3.55
2018-01-06T03:19:10.137Z,3.10
2018-01-06T03:20:12.674Z,3.17
2018-01-06T03:21:15.121Z,3.10
2018-01-06T03:22:17.602Z,3.10
2018-01-06T03:23:20.049Z,2.83
2018-01-06T03:24:22.510Z,3.62
2018-01-06T03:25:24.966Z,2.78
2018-01-06T03:26:27.460Z,2.90
2018-01-06T03:27:29.921Z,2.50
2018-01-06T03:28:32.483Z,3.37
2018-01-06T03:29:35.060Z,3.00
2018-01-06T03:30:37.625Z,3.50
2018-01-06T03:31:40.111Z,3.72
2018-01-06T03:32:43.355Z,2.90
2018-01-06T03:33:46.491Z,3.17
2018-01-06T03:34:49.730Z,2.95
2018-01-06T03:35:52.997Z,3.22
2018-01-06T03:36:55.748Z,2.92
2018-01-06T03:37:58.208Z,2.85
2018-01-06T03:39:00.695Z,2.92
2018-01-06T03:40:03.161Z,3.08
2018-01-06T03:41:05.625Z,3.53
2018-01-06T03:42:08.111Z,3.28
2018-01-06T03:43:10.632Z,3.55
2018-01-06T03:44:13.148Z,3.15
2018-01-06T03:45:15.648Z,2.78
2018-01-06T03:46:18.119Z,3.00
2018-01-06T03:47:21.343Z,3.40
2018-01-06T03:48:23.817Z,2.70
2018-01-06T03:49:26.292Z,3.15
2018-01-06T03:50:29.617Z,3.05
2018-01-06T03:51:32.088Z,2.75
2018-01-06T03:52:35.355Z,3.22
2018-01-06T03:53:37.836Z,3.20
2018-01-06T03:54:40.442Z,3.28
2018-01-06T03:55:42.896Z,2.92
2018-01-06T03:56:46.180Z,3.50
2018-01-06T03:57:48.638Z,3.25
2018-01-06T03:58:51.993Z,3.10
2018-01-06T03:59:54.554Z,3.70
2018-01-06T04:00:57.782Z,3.55
2018-01-06T04:02:01.017Z,2.75
2018-01-06T04:03:04.238Z,4.40
2018-01-06T04:04:06.724Z,3.58
2018-01-06T04:05:09.192Z,3.30
2018-01-06T04:06:11.681Z,3.25
2018-01-06T04:07:14.184Z,3.65
2018-01-06T04:08:16.651Z,3.55
2018-01-06T04:09:19.106Z,3.45
2018-01-06T04:10:21.657Z,3.15
2018-01-06T04:11:24.897Z,3.45
2018-01-06T04:12:28.135Z,3.10
2018-01-06T04:13:31.345Z,2.87
2018-01-06T04:14:33.816Z,3.05
2018-01-06T04:15:36.271Z,2.80
2018-01-06T04:16:38.754Z,3.40
2018-01-06T04:17:41.271Z,3.12
2018-01-06T04:18:44.498Z,3.10
2018-01-06T04:19:46.949Z,3.50
2018-01-06T04:20:49.399Z,3.20
2018-01-06T04:21:51.877Z,3.37
2018-01-06T04:22:54.351Z,2.90
2018-01-06T04:23:56.893Z,3.42
2018-01-06T04:24:59.347Z,3.22
2018-01-06T04:26:01.801Z,3.35
2018-01-06T04:27:05.039Z,3.08
2018-01-06T04:28:07.502Z,3.87
2018-01-06T04:29:09.970Z,3.53
2018-01-06T04:30:13.188Z,3.60
2018-01-06T04:31:15.646Z,3.45
2018-01-06T04:32:19.029Z,3.58
2018-01-06T04:33:21.493Z,3.85
2018-01-06T04:34:24.062Z,3.50
2018-01-06T04:35:26.683Z,3.30
2018-01-06T04:36:29.133Z,3.97
2018-01-06T04:37:31.632Z,3.10
2018-01-06T04:38:34.115Z,3.78
2018-01-06T04:39:36.655Z,3.20
2018-01-06T04:40:39.104Z,3.67
2018-01-06T04:41:41.566Z,3.30
2018-01-06T04:42:44.048Z,3.70
2018-01-06T04:43:47.259Z,3.60
2018-01-06T04:44:49.705Z,2.92
2018-01-06T04:45:52.947Z,3.55
2018-01-06T04:46:56.172Z,3.25
2018-01-06T04:47:58.649Z,3.83
2018-01-06T04:49:01.100Z,3.62
2018-01-06T04:50:03.583Z,3.10
2018-01-06T04:51:06.050Z,2.95
2018-01-06T04:52:08.524Z,3.65
2018-01-06T04:53:11.789Z,2.95
2018-01-06T04:54:14.285Z,3.28
2018-01-06T04:55:17.546Z,3.40
2018-01-06T04:56:20.015Z,3.65
2018-01-06T04:57:22.486Z,3.15
2018-01-06T04:58:25.714Z,3.95
2018-01-06T04:59:28.959Z,3.75
2018-01-06T05:00:32.185Z,2.90
2018-01-06T05:01:34.658Z,3.10
2018-01-06T05:02:37.114Z,3.35
2018-01-06T05:03:39.685Z,3.33
2018-01-06T05:04:42.916Z,3.20
2018-01-06T05:05:46.146Z,3.10
2018-01-06T05:06:48.597Z,3.00
2018-01-06T05:07:51.070Z,3.10
2018-01-06T05:08:53.538Z,2.90
2018-01-06T05:09:57.600Z,3.20
2018-01-06T05:11:00.825Z,3.60
2018-01-06T05:12:03.377Z,4.18
2018-01-06T05:13:07.015Z,3.15
2018-01-06T05:14:10.271Z,3.12
2018-01-06T05:15:12.736Z,2.95
2018-01-06T05:16:15.207Z,3.22
2018-01-06T05:17:18.433Z,2.90
2018-01-06T05:18:21.715Z,3.45
2018-01-06T05:19:24.720Z,3.37
2018-01-06T05:20:27.951Z,2.67
2018-01-06T05:21:30.423Z,3.80
2018-01-06T05:22:32.886Z,3.97
2018-01-06T05:23:35.401Z,3.30
2018-01-06T05:24:37.862Z,3.03
2018-01-06T05:25:41.092Z,3.08
2018-01-06T05:26:45.061Z,3.25
2018-01-06T05:27:47.509Z,3.20
2018-01-06T05:28:49.987Z,3.25
2018-01-06T05:29:52.451Z,3.22
2018-01-06T05:30:54.915Z,3.20
2018-01-06T05:31:57.411Z,2.90
2018-01-06T05:32:59.849Z,3.10
2018-01-06T05:34:02.361Z,3.60
2018-01-06T05:35:04.838Z,3.15
2018-01-06T05:36:07.285Z,2.90
2018-01-06T05:37:10.499Z,2.78
2018-01-06T05:38:12.997Z,3.10
2018-01-06T05:39:15.546Z,3.20
2018-01-06T05:40:18.018Z,3.83
2018-01-06T05:41:21.287Z,2.75
2018-01-06T05:42:23.741Z,3.40
2018-01-06T05:43:26.218Z,3.08
2018-01-06T05:44:28.765Z,2.85
2018-01-06T05:45:31.226Z,3.10
2018-01-06T05:46:33.725Z,3.00
2018-01-06T05:47:36.185Z,3.10
2018-01-06T05:48:38.657Z,3.10
2018-01-06T05:49:41.167Z,3.00
2018-01-06T05:50:43.655Z,3.22
2018-01-06T05:51:46.214Z,2.95
2018-01-06T05:52:48.734Z,3.22
2018-01-06T05:53:51.986Z,2.72
2018-01-06T05:54:54.449Z,3.55
2018-01-06T05:55:57.653Z,3.40
2018-01-06T05:57:00.097Z,3.35
2018-01-06T05:58:02.813Z,3.12
2018-01-06T05:59:05.261Z,3.20
2018-01-06T06:00:07.761Z,3.35
2018-01-06T06:01:10.289Z,3.00
2018-01-06T06:02:12.745Z,3.00
2018-01-06T06:03:15.213Z,3.40
2018-01-06T06:04:17.659Z,3.28
2018-01-06T06:05:20.129Z,3.17
2018-01-06T06:06:22.596Z,3.30
2018-01-06T06:07:25.813Z,3.25
2018-01-06T06:08:28.255Z,3.10
2018-01-06T06:09:31.534Z,3.30
2018-01-06T06:10:34.040Z,3.30
2018-01-06T06:11:36.574Z,3.60
2018-01-06T06:12:39.088Z,3.45
2018-01-06T06:13:41.638Z,3.50
2018-01-06T06:14:44.144Z,3.45
2018-01-06T06:15:47.399Z,4.05
2018-01-06T06:16:49.899Z,3.42
2018-01-06T06:17:53.149Z,3.62
2018-01-06T06:18:55.683Z,3.40
2018-01-06T06:19:58.902Z,3.25
2018-01-06T06:21:02.139Z,3.65
2018-01-06T06:22:05.362Z,4.00
2018-01-06T06:23:09.415Z,3.53
2018-01-06T06:24:11.885Z,3.65
2018-01-06T06:25:15.087Z,3.78
2018-01-06T06:26:17.551Z,4.18
2018-01-06T06:27:20.778Z,4.45
2018-01-06T06:28:24.037Z,3.95
2018-01-06T06:29:26.534Z,4.03
2018-01-06T06:30:28.992Z,4.07
2018-01-06T06:31:31.480Z,3.87
2018-01-06T06:32:33.935Z,4.47
2018-01-06T06:33:37.185Z,4.40
2018-01-06T06:34:39.676Z,4.07
2018-01-06T06:35:42.166Z,4.40
2018-01-06T06:36:44.750Z,4.25
2018-01-06T06:37:48.034Z,4.82
2018-01-06T06:38:50.499Z,4.53
2018-01-06T06:39:52.966Z,5.12
2018-01-06T06:40:55.436Z,4.30
2018-01-06T06:41:57.936Z,4.05
2018-01-06T06:43:00.481Z,4.80
2018-01-06T06:44:03.020Z,4.40
2018-01-06T06:45:05.498Z,4.50
2018-01-06T06:46:08.015Z,3.90
2018-01-06T06:47:10.498Z,5.07
2018-01-06T06:48:13.032Z,4.30
2018-01-06T06:49:15.467Z,4.07
2018-01-06T06:50:18.728Z,3.65
2018-01-06T06:51:21.948Z,3.55
2018-01-06T06:52:25.161Z,3.80
2018-01-06T06:53:28.242Z,4.15
2018-01-06T06:54:30.700Z,3.90
2018-01-06T06:55:33.163Z,3.95
2018-01-06T06:56:35.623Z,3.72
2018-01-06T06:57:38.088Z,3.85
2018-01-06T06:58:40.628Z,3.72
2018-01-06T06:59:43.095Z,4.20
2018-01-06T07:00:45.562Z,4.53
2018-01-06T07:01:48.046Z,4.15
2018-01-06T07:02:50.513Z,3.90
2018-01-06T07:03:53.022Z,3.83
2018-01-06T07:04:55.503Z,4.20
2018-01-06T07:05:59.074Z,3.80
2018-01-06T07:07:01.539Z,3.85
2018-01-06T07:08:04.005Z,4.25
2018-01-06T07:09:07.262Z,3.87
2018-01-06T07:10:09.768Z,4.45
2018-01-06T07:11:12.989Z,4.53
2018-01-06T07:12:15.457Z,3.45
2018-01-06T07:13:18.078Z,3.53
2018-01-06T07:14:20.550Z,4.05
2018-01-06T07:15:23.015Z,4.40
2018-01-06T07:16:26.285Z,3.92
2018-01-06T07:17:29.330Z,4.15
2018-01-06T07:18:31.837Z,4.30
2018-01-06T07:19:34.307Z,4.65
2018-01-06T07:20:37.543Z,4.12
2018-01-06T07:21:40.005Z,4.15
2018-01-06T07:22:43.264Z,4.10
2018-01-06T07:23:46.511Z,4.37
2018-01-06T07:24:49.030Z,4.10
2018-01-06T07:25:52.277Z,4.00
2018-01-06T07:26:54.746Z,4.00
2018-01-06T07:27:57.849Z,4.18
2018-01-06T07:29:00.313Z,4.10
2018-01-06T07:30:02.784Z,3.90
2018-01-06T07:31:06.035Z,3.85
2018-01-06T07:32:08.502Z,3.80
2018-01-06T07:33:11.713Z,4.20
2018-01-06T07:34:14.170Z,4.47
2018-01-06T07:35:16.634Z,4.00
2018-01-06T07:36:19.895Z,4.00
2018-01-06T07:37:22.408Z,4.20
2018-01-06T07:38:25.632Z,4.28
2018-01-06T07:39:28.873Z,4.60
2018-01-06T07:40:31.337Z,4.72
2018-01-06T07:41:34.671Z,4.80
2018-01-06T07:42:37.162Z,4.18
2018-01-06T07:43:39.734Z,4.70
2018-01-06T07:44:42.196Z,4.05
2018-01-06T07:45:44.675Z,5.15
2018-01-06T07:46:47.165Z,4.35
2018-01-06T07:47:50.403Z,4.45
2018-01-06T07:48:52.868Z,4.40
2018-01-06T07:49:56.124Z,5.20
2018-01-06T07:50:58.628Z,5.47
2018-01-06T07:52:01.082Z,4.20
2018-01-06T07:53:03.592Z,5.20
2018-01-06T07:54:06.118Z,4.72
2018-01-06T07:55:08.582Z,4.72
2018-01-06T07:56:11.059Z,4.78
2018-01-06T07:57:13.517Z,5.18
2018-01-06T07:58:16.017Z,4.80
2018-01-06T07:59:18.504Z,5.37
2018-01-06T08:00:20.975Z,5.40
2018-01-06T08:01:23.445Z,5.40
2018-01-06T08:02:27.420Z,6.22
2018-01-06T08:03:30.656Z,4.60
2018-01-06T08:04:33.206Z,5.57
2018-01-06T08:05:36.823Z,5.18
2018-01-06T08:06:39.283Z,5.55
2018-01-06T08:07:41.744Z,5.28
2018-01-06T08:08:44.257Z,5.40
2018-01-06T08:09:46.775Z,5.72
2018-01-06T08:10:49.236Z,5.87
2018-01-06T08:11:51.694Z,5.30
2018-01-06T08:12:54.924Z,5.62
2018-01-06T08:13:57.486Z,5.75
2018-01-06T08:14:59.958Z,5.70
2018-01-06T08:16:02.538Z,6.93
2018-01-06T08:17:05.401Z,5.25
2018-01-06T08:18:07.861Z,5.68
2018-01-06T08:19:11.109Z,5.95
2018-01-06T08:20:14.348Z,5.97
2018-01-06T08:21:17.619Z,6.22
2018-01-06T08:22:20.192Z,6.93
2018-01-06T08:23:22.645Z,5.12
2018-01-06T08:24:25.861Z,6.03
2018-01-06T08:25:28.342Z,5.60
2018-01-06T08:26:30.803Z,5.03
2018-01-06T08:27:33.283Z,5.93
2018-01-06T08:28:35.748Z,5.55
2018-01-06T08:29:38.242Z,4.87
2018-01-06T08:30:40.692Z,5.35
2018-01-06T08:31:43.147Z,6.10
2018-01-06T08:32:45.706Z,5.35
2018-01-06T08:33:48.166Z,5.25
2018-01-06T08:34:50.747Z,4.80
2018-01-06T08:35:54.042Z,5.85
2018-01-06T08:36:56.482Z,5.00
2018-01-06T08:37:58.937Z,5.60
2018-01-06T08:39:02.209Z,5.12
2018-01-06T08:40:04.708Z,4.90
2018-01-06T08:41:07.946Z,5.60
2018-01-06T08:42:11.184Z,5.87
2018-01-06T08:43:13.718Z,5.57
2018-01-06T08:44:16.932Z,5.25
2018-01-06T08:45:19.443Z,6.00
2018-01-06T08:46:21.934Z,5.55
2018-01-06T08:47:24.407Z,5.50
2018-01-06T08:48:26.862Z,5.80
2018-01-06T08:49:30.089Z,5.40
2018-01-06T08:50:33.354Z,5.45
2018-01-06T08:51:37.221Z,5.60
2018-01-06T08:52:39.687Z,5.40
2018-01-06T08:53:42.159Z,5.82
2018-01-06T08:54:44.629Z,5.55
2018-01-06T08:55:47.213Z,5.60
2018-01-06T08:56:49.752Z,6.10
2018-01-06T08:57:52.215Z,4.97
2018-01-06T08:58:54.683Z,6.72
2018-01-06T08:59:57.929Z,6.50
2018-01-06T09:01:00.401Z,6.05
2018-01-06T09:02:02.875Z,7.00
2018-01-06T09:03:06.199Z,6.22
2018-01-06T09:04:09.428Z,6.57
2018-01-06T09:05:12.000Z,5.90
2018-01-06T09:06:14.488Z,5.90
2018-01-06T09:07:16.952Z,5.87
2018-01-06T09:08:19.420Z,6.55
2018-01-06T09:09:21.887Z,6.30
2018-01-06T09:10:25.228Z,6.18
2018-01-06T09:11:28.458Z,6.65
2018-01-06T09:12:31.707Z,6.65
2018-01-06T09:13:34.908Z,7.35
2018-01-06T09:14:37.396Z,6.93
2018-01-06T09:15:39.910Z,6.25
2018-01-06T09:16:42.379Z,6.95
2018-01-06T09:17:44.833Z,6.95
2018-01-06T09:18:47.311Z,6.60
2018-01-06T09:19:49.779Z,6.50
2018-01-06T09:20:52.260Z,6.28
2018-01-06T09:21:54.713Z,6.15
2018-01-06T09:22:57.287Z,6.15
2018-01-06T09:23:59.734Z,5.57
2018-01-06T09:25:02.197Z,5.37
2018-01-06T09:26:04.691Z,6.15
2018-01-06T09:27:07.137Z,5.90
2018-01-06T09:28:09.593Z,5.78
2018-01-06T09:29:12.845Z,6.05
2018-01-06T09:30:16.074Z,5.78
2018-01-06T09:31:19.312Z,5.90
2018-01-06T09:32:21.821Z,5.80
2018-01-06T09:33:24.276Z,5.80
2018-01-06T09:34:27.489Z,5.60
2018-01-06T09:35:29.977Z,5.93
2018-01-06T09:36:32.522Z,6.10
2018-01-06T09:37:35.048Z,6.28
2018-01-06T09:38:37.507Z,6.32
2018-01-06T09:39:40.741Z,6.18
2018-01-06T09:40:43.208Z,7.25
2018-01-06T09:41:45.662Z,6.00
2018-01-06T09:42:48.164Z,6.80
2018-01-06T09:43:50.611Z,6.30
2018-01-06T09:44:53.091Z,6.00
2018-01-06T09:45:56.326Z,5.50
2018-01-06T09:46:59.539Z,5.32
2018-01-06T09:48:02.781Z,5.55
2018-01-06T09:49:05.261Z,5.80
2018-01-06T09:50:07.789Z,6.07
2018-01-06T09:51:10.267Z,5.87
2018-01-06T09:52:12.728Z,5.80
2018-01-06T09:53:15.222Z,5.50
2018-01-06T09:54:17.785Z,5.82
2018-01-06T09:55:20.281Z,5.75
2018-01-06T09:56:22.833Z,5.80
2018-01-06T09:57:25.368Z,6.12
2018-01-06T09:58:27.842Z,5.85
2018-01-06T09:59:30.311Z,6.65
2018-01-06T10:00:32.806Z,5.95
2018-01-06T10:01:36.118Z,6.05
2018-01-06T10:02:38.572Z,6.53
2018-01-06T10:03:41.805Z,6.05
2018-01-06T10:04:45.058Z,6.47
2018-01-06T10:05:48.337Z,10.18
2018-01-06T10:06:50.820Z,5.20
2018-01-06T10:07:54.798Z,11.73
2018-01-06T10:08:58.019Z,5.87
2018-01-06T10:10:00.503Z,5.85
2018-01-06T10:11:03.015Z,12.07
2018-01-06T10:12:05.477Z,9.48
2018-01-06T10:13:07.944Z,6.45
2018-01-06T10:14:11.174Z,5.40
2018-01-06T10:15:14.388Z,5.45
2018-01-06T10:16:16.886Z,5.72
2018-01-06T10:17:19.349Z,5.40
2018-01-06T10:18:21.810Z,5.95
2018-01-06T10:19:24.323Z,5.50
2018-01-06T10:20:27.580Z,4.75
2018-01-06T10:21:30.047Z,5.40
2018-01-06T10:22:32.499Z,4.95
2018-01-06T10:23:35.742Z,5.50
2018-01-06T10:24:38.209Z,5.18
2018-01-06T10:25:40.747Z,6.10
2018-01-06T10:26:43.325Z,5.80
2018-01-06T10:27:46.546Z,6.40
2018-01-06T10:28:49.018Z,5.47
2018-01-06T10:29:51.507Z,5.80
2018-01-06T10:30:54.737Z,5.55
2018-01-06T10:31:57.998Z,5.40
2018-01-06T10:33:01.260Z,6.00
2018-01-06T10:34:03.751Z,6.05
2018-01-06T10:35:06.261Z,5.65
2018-01-06T10:36:08.722Z,6.25
2018-01-06T10:37:11.980Z,6.85
2018-01-06T10:38:14.480Z,6.18
2018-01-06T10:39:17.756Z,6.53
2018-01-06T10:40:20.269Z,6.28
2018-01-06T10:41:22.731Z,5.60
2018-01-06T10:42:25.252Z,6.53
2018-01-06T10:43:27.714Z,5.90
2018-01-06T10:44:30.178Z,5.53
2018-01-06T10:45:32.662Z,5.90
2018-01-06T10:46:35.177Z,5.97
2018-01-06T10:47:37.670Z,6.85
2018-01-06T10:48:40.168Z,6.07
2018-01-06T10:49:42.662Z,5.93
2018-01-06T10:50:45.121Z,6.15
2018-01-06T10:51:48.377Z,6.12
2018-01-06T10:52:50.815Z,6.45
2018-01-06T10:53:53.309Z,7.00
2018-01-06T10:54:56.645Z,7.95
2018-01-06T10:55:59.881Z,9.25
2018-01-06T10:57:02.397Z,9.20
2018-01-06T10:58:04.873Z,18.55
2018-01-06T10:59:07.392Z,21.02
2018-01-06T11:00:09.890Z,18.10
2018-01-06T11:01:18.731Z,14.05
2018-01-06T11:02:21.215Z,15.82
2018-01-06T11:03:23.683Z,13.23
2018-01-06T11:04:26.964Z,14.05
2018-01-06T11:05:30.220Z,16.17
2018-01-06T11:06:32.716Z,16.05
2018-01-06T11:07:35.946Z,14.57
2018-01-06T11:08:39.182Z,19.02
2018-01-06T11:09:41.647Z,20.80
2018-01-06T11:10:44.155Z,18.10
2018-01-06T11:11:47.411Z,15.57
2018-01-06T11:12:49.925Z,13.00
2018-01-06T11:13:53.140Z,14.02
2018-01-06T11:14:55.778Z,11.98
2018-01-06T11:15:58.210Z,12.50
2018-01-06T11:17:00.909Z,11.98
2018-01-06T11:18:03.388Z,8.75
2018-01-06T11:19:05.882Z,8.63
2018-01-06T11:20:08.433Z,9.65
2018-01-06T11:21:11.647Z,8.80
2018-01-06T11:22:14.203Z,8.70
2018-01-06T11:23:16.673Z,8.05
2018-01-06T11:24:19.153Z,8.15
2018-01-06T11:25:22.385Z,7.90
2018-01-06T11:26:25.622Z,7.15
2018-01-06T11:27:28.837Z,6.32
2018-01-06T11:28:31.336Z,7.25
2018-01-06T11:29:33.835Z,6.15
2018-01-06T11:30:36.741Z,5.35
2018-01-06T11:31:39.226Z,6.37
2018-01-06T11:32:41.695Z,6.07
2018-01-06T11:33:44.956Z,7.68
2018-01-06T11:34:47.502Z,6.12
2018-01-06T11:35:50.021Z,7.07
2018-01-06T11:36:52.536Z,5.95
2018-01-06T11:37:54.992Z,6.55
2018-01-06T11:38:57.501Z,6.32
2018-01-06T11:39:59.964Z,6.05
2018-01-06T11:41:02.441Z,6.45
2018-01-06T11:42:04.931Z,7.10
2018-01-06T11:43:08.165Z,6.00
2018-01-06T11:44:10.634Z,5.97
2018-01-06T11:45:13.117Z,5.80
2018-01-06T11:46:15.629Z,4.65
2018-01-06T11:47:18.090Z,5.03
2018-01-06T11:48:21.371Z,4.72
2018-01-06T11:49:23.840Z,4.62
2018-01-06T11:50:26.334Z,4.35
2018-01-06T11:51:28.879Z,4.22
2018-01-06T11:52:31.743Z,4.65
2018-01-06T11:53:34.965Z,4.15
2018-01-06T11:54:37.446Z,4.35
2018-01-06T11:55:39.983Z,5.47
2018-01-06T11:56:42.429Z,4.25
2018-01-06T11:57:44.910Z,4.60
2018-01-06T11:58:47.403Z,4.18
2018-01-06T11:59:50.633Z,4.15
2018-01-06T12:00:53.107Z,4.00
2018-01-06T12:01:55.572Z,4.60
2018-01-06T12:02:58.055Z,3.90
2018-01-06T12:04:00.510Z,4.70
2018-01-06T12:05:02.985Z,4.03
2018-01-06T12:06:05.485Z,3.80
2018-01-06T12:07:08.706Z,4.45
2018-01-06T12:08:12.205Z,4.90
2018-01-06T12:09:14.724Z,4.03
2018-01-06T12:10:17.173Z,4.22
2018-01-06T12:11:19.661Z,4.00
2018-01-06T12:12:22.891Z,4.25
2018-01-06T12:13:25.344Z,4.45
2018-01-06T12:14:27.796Z,4.22
2018-01-06T12:15:30.326Z,4.30
2018-01-06T12:17:41.782Z,4.30
2018-01-06T12:18:45.092Z,4.00
2018-01-06T12:19:48.379Z,4.57
2018-01-06T12:20:50.835Z,4.15
2018-01-06T12:21:53.341Z,3.75
2018-01-06T12:22:55.846Z,4.12
2018-01-06T12:23:59.053Z,4.50
2018-01-06T12:25:01.517Z,3.90
2018-01-06T12:26:04.023Z,4.55
2018-01-06T12:27:07.271Z,4.43
2018-01-06T12:28:10.990Z,4.22
2018-01-06T12:29:13.496Z,4.12
2018-01-06T12:30:15.987Z,4.10
2018-01-06T12:31:18.485Z,4.50
2018-01-06T12:32:21.727Z,4.75
2018-01-06T12:33:24.391Z,4.90
2018-01-06T12:34:26.863Z,4.35
2018-01-06T12:35:29.320Z,5.05
2018-01-06T12:36:32.558Z,4.40
2018-01-06T12:37:35.791Z,5.32
2018-01-06T12:38:38.395Z,4.37
2018-01-06T12:39:40.875Z,4.18
2018-01-06T12:40:43.358Z,4.30
2018-01-06T12:41:45.821Z,4.10
2018-01-06T12:42:48.506Z,3.85
2018-01-06T12:43:50.988Z,4.15
2018-01-06T12:44:53.465Z,4.70
2018-01-06T12:45:56.702Z,3.83
2018-01-06T12:46:59.195Z,4.20
2018-01-06T12:48:01.657Z,4.60
2018-01-06T12:49:04.238Z,4.30
2018-01-06T12:50:06.746Z,4.15
2018-01-06T12:51:09.205Z,4.25
2018-01-06T12:52:11.689Z,4.15
2018-01-06T12:53:14.976Z,4.40
2018-01-06T12:54:17.467Z,4.50
2018-01-06T12:55:19.986Z,4.85
2018-01-06T12:56:22.475Z,4.22
2018-01-06T12:57:25.061Z,4.30
2018-01-06T12:58:27.673Z,4.25
2018-01-06T12:59:30.150Z,4.93
2018-01-06T13:00:34.144Z,4.18
2018-01-06T13:01:37.402Z,4.37
2018-01-06T13:02:39.914Z,4.00
2018-01-06T13:03:43.177Z,4.50
2018-01-06T13:04:45.641Z,4.47
2018-01-06T13:05:48.123Z,5.25
2018-01-06T13:06:51.237Z,4.95
2018-01-06T13:07:54.497Z,4.60
2018-01-06T13:08:57.149Z,3.80
2018-01-06T13:09:59.605Z,5.65
2018-01-06T13:11:02.079Z,5.07
2018-01-06T13:12:04.566Z,4.37
2018-01-06T13:13:07.154Z,4.50
2018-01-06T13:14:09.620Z,4.65
2018-01-06T13:15:12.876Z,4.72
2018-01-06T13:16:16.134Z,3.58
2018-01-06T13:17:18.603Z,4.82
2018-01-06T13:18:21.864Z,4.60
2018-01-06T13:19:24.318Z,4.03
2018-01-06T13:20:27.584Z,4.35
2018-01-06T13:21:30.112Z,4.47
2018-01-06T13:22:32.618Z,4.35
2018-01-06T13:23:35.081Z,4.78
2018-01-06T13:24:37.563Z,3.70
2018-01-06T13:25:40.834Z,4.03
2018-01-06T13:26:43.354Z,3.62
2018-01-06T13:27:45.829Z,3.50
2018-01-06T13:28:48.344Z,3.90
2018-01-06T13:29:50.834Z,3.85
2018-01-06T13:30:53.344Z,3.50
2018-01-06T13:31:55.817Z,3.80
2018-01-06T13:32:58.298Z,4.10
2018-01-06T13:34:00.752Z,4.43
2018-01-06T13:35:03.248Z,3.55
2018-01-06T13:36:05.774Z,3.67
2018-01-06T13:37:08.236Z,3.65
2018-01-06T13:38:10.886Z,3.10
2018-01-06T13:39:13.343Z,3.30
2018-01-06T13:40:16.696Z,3.50
2018-01-06T13:41:19.219Z,3.80
2018-01-06T13:42:21.702Z,3.87
2018-01-06T13:43:24.266Z,3.65
2018-01-06T13:44:26.783Z,3.50
2018-01-06T13:45:30.031Z,3.47
2018-01-06T13:46:33.271Z,3.80
2018-01-06T13:47:36.567Z,3.90
2018-01-06T13:48:39.035Z,3.42
2018-01-06T13:49:42.275Z,3.10
2018-01-06T13:50:44.767Z,3.55
2018-01-06T13:51:47.245Z,4.25
2018-01-06T13:52:49.716Z,3.80
2018-01-06T13:53:52.184Z,3.37